EGYD - Cranwell
Distance from station: E 5mi, 14km
Updated: 12/17/2017 11:50pm
Clear
Clear
 Wind from NW
Wind: NW 10 mph , 17 km/h
Temperature: 37°F , 3°C
Wind Chill: 30°F , -1°C
Dew Point: 34°F , 1°C
Humidity: 87%
Barometer: 30.33 inHg , 1027 hPa
Summary: Clear
Visibility: greater than 7 miles , 10 km
2017/12/18 07:50 EGYD 180750Z 31009KT CAVOK 03/01 Q1027 BLACKBLU NOSIG